Terminal Aerodrome Forecast
Issued by NWS

Home | Current Version | Previous Version | Graphics & Text | Print | Product List | Glossary On
Versions: 1 2 3 4 5 6 7 8 9 10 11 12 13 14 15 16 17
072
FTUS43 KLSX 232339
TAFSUS
TAF
KSUS 232339Z 2400/2424 14010KT P6SM SKC
     FM240300 17009KT P6SM SKC WS016/19045KT
     FM241400 19014G21KT P6SM BKN035=

USA.gov is the U.S. government's official web portal to all federal, state and local government web resources and services.